This is the latest recevied weather packets stored in our database for station/object KK4WXG. If no packets are shown the sender has not sent any weather packets the latest 10 day(s).
| Time | Temp. | Humidity | Pressure | Rain* | Wind** | Luminosity | Snow |
|---|---|---|---|---|---|---|---|
| 1777322210 | 21.11° C | 42% | 1021.9 hPa | 0 mm | - | 572 W/m² | - |
| 1777321907 | 21.11° C | 41% | 1022 hPa | 0 mm | - | 580 W/m² | - |
| 1777321604 | 21.67° C | 40% | 1021.9 hPa | 0 mm | - | 610 W/m² | - |
| 1777321301 | 21.67° C | 41% | 1022 hPa | 0 mm | - | 578 W/m² | - |
| 1777320998 | 21.11° C | 42% | 1022 hPa | 0 mm | - | 652 W/m² | - |
| 1777320696 | 21.11° C | 39% | 1022 hPa | 0 mm | - | 655 W/m² | - |
| 1777320393 | 20.56° C | 41% | 1022 hPa | 0 mm | - | 661 W/m² | - |
| 1777320089 | 21.11° C | 44% | 1021.9 hPa | 0 mm | - | 695 W/m² | - |
| 1777319786 | 21.11° C | 43% | 1022 hPa | 0 mm | - | 722 W/m² | - |
| 1777319483 | 21.67° C | 40% | 1022.2 hPa | 0 mm | - | 738 W/m² | - |
| 1777319181 | 21.11° C | 45% | 1022.3 hPa | 0 mm | - | 748 W/m² | - |
| 1777318877 | 20.56° C | 40% | 1022.4 hPa | 0 mm | - | 754 W/m² | - |
| 1777318575 | 20.56° C | 43% | 1022.3 hPa | 0 mm | - | 777 W/m² | - |
| 1777318271 | 20.56° C | 42% | 1022.2 hPa | 0 mm | - | 788 W/m² | - |
| 1777317967 | 21.11° C | 40% | 1022.3 hPa | 0 mm | - | 802 W/m² | - |
| 1777317664 | 21.11° C | 43% | 1022.3 hPa | 0 mm | - | 811 W/m² | - |
| 1777317362 | 20.56° C | 45% | 1022.5 hPa | 0 mm | - | 820 W/m² | - |
| 1777317056 | 20.56° C | 47% | 1022.7 hPa | 0 mm | - | 841 W/m² | - |
| 1777316755 | 20.56° C | 44% | 1022.6 hPa | 0 mm | - | 851 W/m² | - |
| 1777316450 | 21.11° C | 43% | 1022.7 hPa | 0 mm | - | 868 W/m² | - |
| 1777316148 | 20° C | 47% | 1023 hPa | 0 mm | - | 883 W/m² | - |
| 1777315846 | 20° C | 47% | 1023 hPa | 0 mm | - | 373 W/m² | - |
| 1777315544 | 18.89° C | 51% | 1023 hPa | 0 mm | - | 239 W/m² | - |
| 1777315242 | 20° C | 48% | 1022.9 hPa | 0 mm | - | 259 W/m² | - |
| 1777314939 | 20° C | 47% | 1023.1 hPa | 0 mm | - | 1047 W/m² | - |
* Rain latest hour (hover to see other rain measurements)
** Current wind speed in m/s (hover to see current wind gust speed)